sensor_id;sensor_type;location;lat;lon;timestamp;P1;durP1;ratioP1;P2;durP2;ratioP2
15234;SDS011;7720;51.926;4.488;2023-05-10T00:03:38;43.72;;;30.58;;
15234;SDS011;7720;51.926;4.488;2023-05-10T00:08:43;43.55;;;31.50;;
15234;SDS011;7720;51.926;4.488;2023-05-10T00:13:47;42.33;;;31.23;;
15234;SDS011;7720;51.926;4.488;2023-05-10T00:18:51;44.25;;;30.60;;
15234;SDS011;7720;51.926;4.488;2023-05-10T00:23:55;44.72;;;29.88;;
15234;SDS011;7720;51.926;4.488;2023-05-10T00:28:59;45.63;;;30.58;;
15234;SDS011;7720;51.926;4.488;2023-05-10T00:34:02;44.15;;;30.65;;
15234;SDS011;7720;51.926;4.488;2023-05-10T00:39:07;46.80;;;29.88;;
15234;SDS011;7720;51.926;4.488;2023-05-10T00:44:10;44.78;;;27.55;;
15234;SDS011;7720;51.926;4.488;2023-05-10T00:49:14;37.13;;;24.85;;
15234;SDS011;7720;51.926;4.488;2023-05-10T00:54:19;35.05;;;25.00;;
15234;SDS011;7720;51.926;4.488;2023-05-10T00:59:23;33.25;;;23.85;;
15234;SDS011;7720;51.926;4.488;2023-05-10T01:04:27;41.17;;;27.10;;
15234;SDS011;7720;51.926;4.488;2023-05-10T01:09:32;44.58;;;27.55;;
15234;SDS011;7720;51.926;4.488;2023-05-10T01:14:36;40.63;;;27.58;;
15234;SDS011;7720;51.926;4.488;2023-05-10T01:19:40;44.83;;;27.50;;
15234;SDS011;7720;51.926;4.488;2023-05-10T01:25:09;44.65;;;26.27;;
15234;SDS011;7720;51.926;4.488;2023-05-10T01:36:01;46.17;;;28.48;;
15234;SDS011;7720;51.926;4.488;2023-05-10T01:47:34;45.85;;;25.60;;
15234;SDS011;7720;51.926;4.488;2023-05-10T01:52:42;43.63;;;26.33;;
15234;SDS011;7720;51.926;4.488;2023-05-10T01:57:51;44.30;;;26.77;;
15234;SDS011;7720;51.926;4.488;2023-05-10T02:03:03;47.20;;;25.83;;
15234;SDS011;7720;51.926;4.488;2023-05-10T02:08:12;44.75;;;25.85;;
15234;SDS011;7720;51.926;4.488;2023-05-10T02:13:18;46.28;;;27.40;;
15234;SDS011;7720;51.926;4.488;2023-05-10T02:18:22;44.22;;;26.90;;
15234;SDS011;7720;51.926;4.488;2023-05-10T02:23:29;38.10;;;24.25;;
15234;SDS011;7720;51.926;4.488;2023-05-10T03:02:56;26.55;;;20.05;;
15234;SDS011;7720;51.926;4.488;2023-05-10T03:08:49;33.42;;;22.15;;
15234;SDS011;7720;51.926;4.488;2023-05-10T03:13:55;32.67;;;22.38;;
15234;SDS011;7720;51.926;4.488;2023-05-10T03:19:15;30.85;;;23.42;;
15234;SDS011;7720;51.926;4.488;2023-05-10T03:24:27;40.03;;;26.17;;
15234;SDS011;7720;51.926;4.488;2023-05-10T03:29:33;36.25;;;25.40;;
15234;SDS011;7720;51.926;4.488;2023-05-10T03:34:41;40.38;;;26.70;;
15234;SDS011;7720;51.926;4.488;2023-05-10T03:39:46;43.60;;;29.48;;
15234;SDS011;7720;51.926;4.488;2023-05-10T03:44:50;43.38;;;31.23;;
15234;SDS011;7720;51.926;4.488;2023-05-10T03:49:54;38.65;;;26.38;;
15234;SDS011;7720;51.926;4.488;2023-05-10T03:54:59;34.85;;;28.42;;
15234;SDS011;7720;51.926;4.488;2023-05-10T04:00:04;42.30;;;30.45;;
15234;SDS011;7720;51.926;4.488;2023-05-10T04:05:14;50.25;;;35.22;;
15234;SDS011;7720;51.926;4.488;2023-05-10T04:10:19;48.75;;;33.95;;
15234;SDS011;7720;51.926;4.488;2023-05-10T04:15:23;52.40;;;34.15;;
15234;SDS011;7720;51.926;4.488;2023-05-10T04:20:26;51.25;;;33.42;;
15234;SDS011;7720;51.926;4.488;2023-05-10T04:25:33;37.95;;;25.48;;
15234;SDS011;7720;51.926;4.488;2023-05-10T04:30:36;41.17;;;25.48;;
15234;SDS011;7720;51.926;4.488;2023-05-10T04:35:42;39.35;;;26.45;;
15234;SDS011;7720;51.926;4.488;2023-05-10T04:40:47;47.65;;;28.60;;
15234;SDS011;7720;51.926;4.488;2023-05-10T04:45:51;46.92;;;27.85;;
15234;SDS011;7720;51.926;4.488;2023-05-10T04:50:54;44.75;;;25.25;;
15234;SDS011;7720;51.926;4.488;2023-05-10T04:55:59;43.13;;;23.02;;
15234;SDS011;7720;51.926;4.488;2023-05-10T05:01:06;33.38;;;19.83;;
15234;SDS011;7720;51.926;4.488;2023-05-10T05:06:09;37.80;;;20.67;;
15234;SDS011;7720;51.926;4.488;2023-05-10T05:11:14;37.92;;;18.95;;
15234;SDS011;7720;51.926;4.488;2023-05-10T05:16:17;31.67;;;15.55;;
15234;SDS011;7720;51.926;4.488;2023-05-10T05:21:21;15.13;;;10.23;;
15234;SDS011;7720;51.926;4.488;2023-05-10T05:26:27;14.02;;;9.63;;
15234;SDS011;7720;51.926;4.488;2023-05-10T05:31:32;17.10;;;10.32;;
15234;SDS011;7720;51.926;4.488;2023-05-10T05:36:35;14.52;;;11.35;;
15234;SDS011;7720;51.926;4.488;2023-05-10T05:41:41;18.00;;;11.05;;
15234;SDS011;7720;51.926;4.488;2023-05-10T05:46:45;17.42;;;11.63;;
15234;SDS011;7720;51.926;4.488;2023-05-10T05:51:48;23.42;;;13.48;;
15234;SDS011;7720;51.926;4.488;2023-05-10T05:56:54;19.58;;;12.90;;
15234;SDS011;7720;51.926;4.488;2023-05-10T06:02:01;21.17;;;13.40;;
15234;SDS011;7720;51.926;4.488;2023-05-10T06:07:04;26.45;;;14.77;;
15234;SDS011;7720;51.926;4.488;2023-05-10T06:12:09;25.27;;;14.60;;
15234;SDS011;7720;51.926;4.488;2023-05-10T06:17:13;24.90;;;14.93;;
15234;SDS011;7720;51.926;4.488;2023-05-10T06:22:16;22.45;;;13.80;;
15234;SDS011;7720;51.926;4.488;2023-05-10T06:27:21;17.88;;;11.75;;
15234;SDS011;7720;51.926;4.488;2023-05-10T06:32:25;16.60;;;11.40;;
15234;SDS011;7720;51.926;4.488;2023-05-10T06:37:28;15.50;;;10.57;;
15234;SDS011;7720;51.926;4.488;2023-05-10T06:42:32;14.55;;;10.15;;
15234;SDS011;7720;51.926;4.488;2023-05-10T06:47:37;11.60;;;8.77;;
15234;SDS011;7720;51.926;4.488;2023-05-10T06:52:40;11.50;;;7.53;;
15234;SDS011;7720;51.926;4.488;2023-05-10T06:57:45;8.40;;;6.82;;
15234;SDS011;7720;51.926;4.488;2023-05-10T07:02:49;8.40;;;6.53;;
15234;SDS011;7720;51.926;4.488;2023-05-10T07:07:52;10.20;;;7.22;;
15234;SDS011;7720;51.926;4.488;2023-05-10T07:12:57;8.15;;;7.28;;
15234;SDS011;7720;51.926;4.488;2023-05-10T07:18:00;9.52;;;6.78;;
15234;SDS011;7720;51.926;4.488;2023-05-10T07:23:06;9.32;;;6.53;;
15234;SDS011;7720;51.926;4.488;2023-05-10T07:28:10;6.18;;;5.57;;
15234;SDS011;7720;51.926;4.488;2023-05-10T07:33:14;7.22;;;5.95;;
15234;SDS011;7720;51.926;4.488;2023-05-10T07:38:18;9.13;;;5.80;;
15234;SDS011;7720;51.926;4.488;2023-05-10T07:43:23;7.45;;;5.85;;
15234;SDS011;7720;51.926;4.488;2023-05-10T07:48:26;10.55;;;6.25;;
15234;SDS011;7720;51.926;4.488;2023-05-10T07:53:30;8.73;;;5.75;;
15234;SDS011;7720;51.926;4.488;2023-05-10T07:58:34;6.97;;;5.55;;
15234;SDS011;7720;51.926;4.488;2023-05-10T08:03:38;6.25;;;5.43;;
15234;SDS011;7720;51.926;4.488;2023-05-10T08:08:41;6.00;;;4.95;;
15234;SDS011;7720;51.926;4.488;2023-05-10T08:13:49;5.32;;;4.40;;
15234;SDS011;7720;51.926;4.488;2023-05-10T08:18:53;7.30;;;4.57;;
15234;SDS011;7720;51.926;4.488;2023-05-10T08:23:57;7.07;;;4.93;;
15234;SDS011;7720;51.926;4.488;2023-05-10T08:29:01;7.00;;;5.20;;
15234;SDS011;7720;51.926;4.488;2023-05-10T08:34:05;6.00;;;5.22;;
15234;SDS011;7720;51.926;4.488;2023-05-10T08:39:08;7.30;;;5.32;;
15234;SDS011;7720;51.926;4.488;2023-05-10T08:44:32;8.35;;;5.90;;
15234;SDS011;7720;51.926;4.488;2023-05-10T08:49:36;7.30;;;5.32;;
15234;SDS011;7720;51.926;4.488;2023-05-10T08:54:40;6.50;;;5.70;;
15234;SDS011;7720;51.926;4.488;2023-05-10T08:59:45;7.22;;;5.95;;
15234;SDS011;7720;51.926;4.488;2023-05-10T09:04:49;9.65;;;8.25;;
15234;SDS011;7720;51.926;4.488;2023-05-10T09:09:53;12.10;;;8.70;;
15234;SDS011;7720;51.926;4.488;2023-05-10T09:14:58;11.88;;;9.45;;
15234;SDS011;7720;51.926;4.488;2023-05-10T09:20:03;9.25;;;8.23;;
15234;SDS011;7720;51.926;4.488;2023-05-10T09:25:08;8.07;;;7.05;;
15234;SDS011;7720;51.926;4.488;2023-05-10T09:30:16;6.60;;;6.00;;
15234;SDS011;7720;51.926;4.488;2023-05-10T09:35:27;8.27;;;7.47;;
15234;SDS011;7720;51.926;4.488;2023-05-10T09:40:31;10.48;;;9.10;;
15234;SDS011;7720;51.926;4.488;2023-05-10T09:45:36;9.75;;;8.80;;
15234;SDS011;7720;51.926;4.488;2023-05-10T09:50:39;9.13;;;7.10;;
15234;SDS011;7720;51.926;4.488;2023-05-10T09:55:44;10.38;;;7.63;;
15234;SDS011;7720;51.926;4.488;2023-05-10T10:00:52;9.88;;;7.47;;
15234;SDS011;7720;51.926;4.488;2023-05-10T10:05:56;10.93;;;8.63;;
